sensor_id;sensor_type;location;lat;lon;timestamp;temperature;humidity
42663;DHT22;44330;51.360;6.686;2022-07-29T00:01:06;19.80;99.90
42663;DHT22;44330;51.360;6.686;2022-07-29T00:03:32;19.80;99.90
42663;DHT22;44330;51.360;6.686;2022-07-29T00:05:57;19.80;99.90
42663;DHT22;44330;51.360;6.686;2022-07-29T00:08:23;19.90;99.90
42663;DHT22;44330;51.360;6.686;2022-07-29T00:10:49;19.90;99.90
42663;DHT22;44330;51.360;6.686;2022-07-29T00:13:14;19.80;99.90
42663;DHT22;44330;51.360;6.686;2022-07-29T00:15:40;19.80;99.90
42663;DHT22;44330;51.360;6.686;2022-07-29T00:18:05;19.80;99.90
42663;DHT22;44330;51.360;6.686;2022-07-29T00:20:31;19.70;99.90
42663;DHT22;44330;51.360;6.686;2022-07-29T00:22:57;19.70;99.90
42663;DHT22;44330;51.360;6.686;2022-07-29T00:25:22;19.60;99.90
42663;DHT22;44330;51.360;6.686;2022-07-29T00:27:48;19.60;99.90
42663;DHT22;44330;51.360;6.686;2022-07-29T00:30:13;19.60;99.90
42663;DHT22;44330;51.360;6.686;2022-07-29T00:32:39;19.60;99.90
42663;DHT22;44330;51.360;6.686;2022-07-29T00:35:05;19.60;99.90
42663;DHT22;44330;51.360;6.686;2022-07-29T00:37:49;19.60;99.90
42663;DHT22;44330;51.360;6.686;2022-07-29T00:40:15;19.50;99.90
42663;DHT22;44330;51.360;6.686;2022-07-29T00:42:45;19.50;99.90
42663;DHT22;44330;51.360;6.686;2022-07-29T00:45:11;19.50;99.90
42663;DHT22;44330;51.360;6.686;2022-07-29T00:47:37;19.50;99.90
42663;DHT22;44330;51.360;6.686;2022-07-29T00:50:07;19.50;99.90
42663;DHT22;44330;51.360;6.686;2022-07-29T00:52:37;19.50;99.90
42663;DHT22;44330;51.360;6.686;2022-07-29T00:55:05;19.40;99.90
42663;DHT22;44330;51.360;6.686;2022-07-29T00:57:31;19.40;99.90
42663;DHT22;44330;51.360;6.686;2022-07-29T00:59:57;19.40;99.90
42663;DHT22;44330;51.360;6.686;2022-07-29T01:02:22;19.40;99.90
42663;DHT22;44330;51.360;6.686;2022-07-29T01:04:49;19.30;99.90
42663;DHT22;44330;51.360;6.686;2022-07-29T01:07:15;19.30;99.90
42663;DHT22;44330;51.360;6.686;2022-07-29T01:09:41;19.30;99.90
42663;DHT22;44330;51.360;6.686;2022-07-29T01:12:07;19.30;99.90
42663;DHT22;44330;51.360;6.686;2022-07-29T01:14:34;19.20;99.90
42663;DHT22;44330;51.360;6.686;2022-07-29T01:17:12;19.20;99.90
42663;DHT22;44330;51.360;6.686;2022-07-29T01:22:49;19.20;99.90
42663;DHT22;44330;51.360;6.686;2022-07-29T01:31:06;19.20;99.90
42663;DHT22;44330;51.360;6.686;2022-07-29T01:33:43;19.10;99.90
42663;DHT22;44330;51.360;6.686;2022-07-29T01:36:49;19.10;99.90
42663;DHT22;44330;51.360;6.686;2022-07-29T01:39:23;19.10;99.90
42663;DHT22;44330;51.360;6.686;2022-07-29T01:47:39;19.00;99.90
42663;DHT22;44330;51.360;6.686;2022-07-29T01:50:08;19.00;99.90
42663;DHT22;44330;51.360;6.686;2022-07-29T01:52:58;19.10;99.90
42663;DHT22;44330;51.360;6.686;2022-07-29T01:55:28;19.00;99.90
42663;DHT22;44330;51.360;6.686;2022-07-29T01:57:56;19.00;99.90
42663;DHT22;44330;51.360;6.686;2022-07-29T02:00:23;19.00;99.90
42663;DHT22;44330;51.360;6.686;2022-07-29T02:02:49;19.00;99.90
42663;DHT22;44330;51.360;6.686;2022-07-29T02:05:17;19.00;99.90
42663;DHT22;44330;51.360;6.686;2022-07-29T02:07:44;19.00;99.90
42663;DHT22;44330;51.360;6.686;2022-07-29T02:10:12;18.90;99.90
42663;DHT22;44330;51.360;6.686;2022-07-29T02:12:39;18.90;99.90
42663;DHT22;44330;51.360;6.686;2022-07-29T02:15:06;18.90;99.90
42663;DHT22;44330;51.360;6.686;2022-07-29T02:17:41;18.90;99.90
42663;DHT22;44330;51.360;6.686;2022-07-29T02:20:08;18.90;99.90
42663;DHT22;44330;51.360;6.686;2022-07-29T02:22:36;18.90;99.90
42663;DHT22;44330;51.360;6.686;2022-07-29T02:25:03;19.00;99.90
42663;DHT22;44330;51.360;6.686;2022-07-29T02:27:30;18.90;99.90
42663;DHT22;44330;51.360;6.686;2022-07-29T02:30:00;19.00;99.90
42663;DHT22;44330;51.360;6.686;2022-07-29T02:32:27;19.00;99.90
42663;DHT22;44330;51.360;6.686;2022-07-29T02:34:54;19.00;99.90
42663;DHT22;44330;51.360;6.686;2022-07-29T02:37:21;18.90;99.90
42663;DHT22;44330;51.360;6.686;2022-07-29T02:39:48;18.80;99.90
42663;DHT22;44330;51.360;6.686;2022-07-29T02:42:17;18.80;99.90
42663;DHT22;44330;51.360;6.686;2022-07-29T02:44:44;18.70;99.90
42663;DHT22;44330;51.360;6.686;2022-07-29T02:47:20;18.70;99.90
42663;DHT22;44330;51.360;6.686;2022-07-29T02:49:57;18.60;99.90
42663;DHT22;44330;51.360;6.686;2022-07-29T02:52:34;18.60;99.90
42663;DHT22;44330;51.360;6.686;2022-07-29T03:00:49;18.30;99.90
42663;DHT22;44330;51.360;6.686;2022-07-29T03:03:18;18.30;99.90
42663;DHT22;44330;51.360;6.686;2022-07-29T03:05:44;18.30;99.90
42663;DHT22;44330;51.360;6.686;2022-07-29T03:08:11;18.20;99.90
42663;DHT22;44330;51.360;6.686;2022-07-29T03:10:42;18.20;99.90
42663;DHT22;44330;51.360;6.686;2022-07-29T03:13:09;18.10;99.90
42663;DHT22;44330;51.360;6.686;2022-07-29T03:15:35;18.10;99.90
42663;DHT22;44330;51.360;6.686;2022-07-29T03:18:02;18.00;99.90
42663;DHT22;44330;51.360;6.686;2022-07-29T03:20:27;18.00;99.90
42663;DHT22;44330;51.360;6.686;2022-07-29T03:22:53;17.90;99.90
42663;DHT22;44330;51.360;6.686;2022-07-29T03:25:20;17.90;99.90
42663;DHT22;44330;51.360;6.686;2022-07-29T03:27:46;17.90;99.90
42663;DHT22;44330;51.360;6.686;2022-07-29T03:30:13;18.00;99.90
42663;DHT22;44330;51.360;6.686;2022-07-29T03:32:39;17.90;99.90
42663;DHT22;44330;51.360;6.686;2022-07-29T03:35:06;17.90;99.90
42663;DHT22;44330;51.360;6.686;2022-07-29T03:37:32;17.80;99.90
42663;DHT22;44330;51.360;6.686;2022-07-29T03:40:00;17.80;99.90
42663;DHT22;44330;51.360;6.686;2022-07-29T03:42:29;17.80;99.90
42663;DHT22;44330;51.360;6.686;2022-07-29T03:44:57;17.80;99.90
42663;DHT22;44330;51.360;6.686;2022-07-29T03:47:26;17.80;99.90
42663;DHT22;44330;51.360;6.686;2022-07-29T03:50:05;17.70;99.90
42663;DHT22;44330;51.360;6.686;2022-07-29T03:52:31;17.70;99.90
42663;DHT22;44330;51.360;6.686;2022-07-29T03:54:57;17.70;99.90
42663;DHT22;44330;51.360;6.686;2022-07-29T03:57:25;17.70;99.90
42663;DHT22;44330;51.360;6.686;2022-07-29T03:59:52;17.70;99.90
42663;DHT22;44330;51.360;6.686;2022-07-29T04:02:19;17.50;5.20
42663;DHT22;44330;51.360;6.686;2022-07-29T04:04:45;17.30;99.90
42663;DHT22;44330;51.360;6.686;2022-07-29T04:07:14;17.20;12.90
42663;DHT22;44330;51.360;6.686;2022-07-29T04:09:41;17.10;84.90
42663;DHT22;44330;51.360;6.686;2022-07-29T04:12:07;16.90;99.90
42663;DHT22;44330;51.360;6.686;2022-07-29T04:14:34;16.70;99.90
42663;DHT22;44330;51.360;6.686;2022-07-29T04:17:00;16.60;99.90
42663;DHT22;44330;51.360;6.686;2022-07-29T04:19:26;16.40;28.90
42663;DHT22;44330;51.360;6.686;2022-07-29T04:21:52;16.30;74.90
42663;DHT22;44330;51.360;6.686;2022-07-29T04:24:17;16.20;99.90
42663;DHT22;44330;51.360;6.686;2022-07-29T04:26:44;16.00;99.90
42663;DHT22;44330;51.360;6.686;2022-07-29T04:29:10;15.90;99.90
42663;DHT22;44330;51.360;6.686;2022-07-29T04:31:37;15.70;99.90
42663;DHT22;44330;51.360;6.686;2022-07-29T04:34:02;15.50;1.00
42663;DHT22;44330;51.360;6.686;2022-07-29T04:36:28;15.50;1.00
42663;DHT22;44330;51.360;6.686;2022-07-29T04:38:53;15.40;1.00
42663;DHT22;44330;51.360;6.686;2022-07-29T04:41:19;15.40;1.00
42663;DHT22;44330;51.360;6.686;2022-07-29T04:43:45;15.50;1.00
42663;DHT22;44330;51.360;6.686;2022-07-29T04:46:10;15.40;1.00
42663;DHT22;44330;51.360;6.686;2022-07-29T04:48:36;15.60;1.00
42663;DHT22;44330;51.360;6.686;2022-07-29T04:51:01;15.60;1.00
42663;DHT22;44330;51.360;6.686;2022-07-29T04:53:27;15.60;1.00
42663;DHT22;44330;51.360;6.686;2022-07-29T04:55:53;15.60;1.00
42663;DHT22;44330;51.360;6.686;2022-07-29T04:58:18;15.70;1.00
42663;DHT22;44330;51.360;6.686;2022-07-29T05:00:44;15.70;1.40
42663;DHT22;44330;51.360;6.686;2022-07-29T05:03:09;15.80;8.60
42663;DHT22;44330;51.360;6.686;2022-07-29T05:05:35;15.80;11.90
42663;DHT22;44330;51.360;6.686;2022-07-29T05:08:01;15.80;8.30
42663;DHT22;44330;51.360;6.686;2022-07-29T05:10:26;15.80;15.50
42663;DHT22;44330;51.360;6.686;2022-07-29T05:12:52;15.90;23.70
42663;DHT22;44330;51.360;6.686;2022-07-29T05:15:18;16.00;23.40
42663;DHT22;44330;51.360;6.686;2022-07-29T05:17:44;16.00;17.60
42663;DHT22;44330;51.360;6.686;2022-07-29T05:20:10;16.00;10.80
42663;DHT22;44330;51.360;6.686;2022-07-29T05:22:35;16.00;18.20
42663;DHT22;44330;51.360;6.686;2022-07-29T05:25:01;16.00;22.00
42663;DHT22;44330;51.360;6.686;2022-07-29T05:27:27;15.90;18.90
42663;DHT22;44330;51.360;6.686;2022-07-29T05:29:52;15.90;12.00
42663;DHT22;44330;51.360;6.686;2022-07-29T05:32:18;15.90;1.00
42663;DHT22;44330;51.360;6.686;2022-07-29T05:34:43;15.90;1.00
42663;DHT22;44330;51.360;6.686;2022-07-29T05:37:09;15.90;1.00
42663;DHT22;44330;51.360;6.686;2022-07-29T05:39:35;16.00;1.00
42663;DHT22;44330;51.360;6.686;2022-07-29T05:42:00;16.00;1.00
42663;DHT22;44330;51.360;6.686;2022-07-29T05:44:26;16.00;1.00
42663;DHT22;44330;51.360;6.686;2022-07-29T05:46:51;15.90;5.00
42663;DHT22;44330;51.360;6.686;2022-07-29T05:49:17;15.90;3.60
42663;DHT22;44330;51.360;6.686;2022-07-29T05:51:43;15.90;1.00
42663;DHT22;44330;51.360;6.686;2022-07-29T05:54:08;15.90;1.00
42663;DHT22;44330;51.360;6.686;2022-07-29T05:56:35;15.90;1.00
42663;DHT22;44330;51.360;6.686;2022-07-29T05:59:02;15.90;1.00
42663;DHT22;44330;51.360;6.686;2022-07-29T06:01:27;16.00;1.00
42663;DHT22;44330;51.360;6.686;2022-07-29T06:03:53;16.00;1.00
42663;DHT22;44330;51.360;6.686;2022-07-29T06:06:18;16.00;1.00
42663;DHT22;44330;51.360;6.686;2022-07-29T06:08:44;16.10;1.00
42663;DHT22;44330;51.360;6.686;2022-07-29T06:11:09;16.10;1.00
42663;DHT22;44330;51.360;6.686;2022-07-29T06:13:35;16.20;1.00
42663;DHT22;44330;51.360;6.686;2022-07-29T06:16:00;16.20;1.00
42663;DHT22;44330;51.360;6.686;2022-07-29T06:18:26;16.30;1.00
42663;DHT22;44330;51.360;6.686;2022-07-29T06:20:52;16.30;1.00
42663;DHT22;44330;51.360;6.686;2022-07-29T06:23:19;16.50;1.00
42663;DHT22;44330;51.360;6.686;2022-07-29T06:25:45;16.50;1.00
42663;DHT22;44330;51.360;6.686;2022-07-29T06:28:10;16.60;1.00
42663;DHT22;44330;51.360;6.686;2022-07-29T06:30:36;16.70;1.20
42663;DHT22;44330;51.360;6.686;2022-07-29T06:33:03;16.90;1.00
42663;DHT22;44330;51.360;6.686;2022-07-29T06:35:29;16.90;1.00
42663;DHT22;44330;51.360;6.686;2022-07-29T06:37:54;17.00;1.00
42663;DHT22;44330;51.360;6.686;2022-07-29T06:40:20;16.90;1.00
42663;DHT22;44330;51.360;6.686;2022-07-29T06:43:04;17.00;1.00
42663;DHT22;44330;51.360;6.686;2022-07-29T06:45:33;16.90;1.00
42663;DHT22;44330;51.360;6.686;2022-07-29T06:47:58;16.90;1.00
42663;DHT22;44330;51.360;6.686;2022-07-29T06:50:24;16.90;1.00
42663;DHT22;44330;51.360;6.686;2022-07-29T06:52:50;16.90;1.00
42663;DHT22;44330;51.360;6.686;2022-07-29T06:55:15;16.80;1.00
42663;DHT22;44330;51.360;6.686;2022-07-29T06:57:41;16.80;1.00
42663;DHT22;44330;51.360;6.686;2022-07-29T07:00:07;16.80;1.00
42663;DHT22;44330;51.360;6.686;2022-07-29T07:02:33;16.70;1.00
42663;DHT22;44330;51.360;6.686;2022-07-29T07:04:58;16.70;1.00
42663;DHT22;44330;51.360;6.686;2022-07-29T07:07:24;16.70;1.00
42663;DHT22;44330;51.360;6.686;2022-07-29T07:09:50;16.70;1.00
42663;DHT22;44330;51.360;6.686;2022-07-29T07:12:16;16.70;1.00
42663;DHT22;44330;51.360;6.686;2022-07-29T07:14:41;16.70;1.00
42663;DHT22;44330;51.360;6.686;2022-07-29T07:17:07;16.80;1.00
42663;DHT22;44330;51.360;6.686;2022-07-29T07:19:33;16.80;1.00
42663;DHT22;44330;51.360;6.686;2022-07-29T07:21:58;16.80;1.00
42663;DHT22;44330;51.360;6.686;2022-07-29T07:24:24;16.80;1.00
42663;DHT22;44330;51.360;6.686;2022-07-29T07:26:49;16.80;1.00
42663;DHT22;44330;51.360;6.686;2022-07-29T07:29:15;16.80;1.00
42663;DHT22;44330;51.360;6.686;2022-07-29T07:31:41;16.90;1.00
42663;DHT22;44330;51.360;6.686;2022-07-29T07:34:06;16.90;1.50
42663;DHT22;44330;51.360;6.686;2022-07-29T07:36:32;16.90;11.40
42663;DHT22;44330;51.360;6.686;2022-07-29T07:38:57;16.90;15.70
42663;DHT22;44330;51.360;6.686;2022-07-29T07:41:23;16.80;18.00
42663;DHT22;44330;51.360;6.686;2022-07-29T07:43:48;16.80;18.30
42663;DHT22;44330;51.360;6.686;2022-07-29T07:46:15;16.90;22.40
42663;DHT22;44330;51.360;6.686;2022-07-29T07:48:40;16.90;22.20
42663;DHT22;44330;51.360;6.686;2022-07-29T07:51:06;16.90;29.80
42663;DHT22;44330;51.360;6.686;2022-07-29T07:53:32;16.90;32.50
42663;DHT22;44330;51.360;6.686;2022-07-29T07:55:58;16.90;31.60
42663;DHT22;44330;51.360;6.686;2022-07-29T07:58:24;16.90;30.90
42663;DHT22;44330;51.360;6.686;2022-07-29T08:00:49;16.70;26.90
42663;DHT22;44330;51.360;6.686;2022-07-29T08:03:15;16.70;29.70
42663;DHT22;44330;51.360;6.686;2022-07-29T08:05:40;16.70;33.50
42663;DHT22;44330;51.360;6.686;2022-07-29T08:08:06;16.70;33.30
42663;DHT22;44330;51.360;6.686;2022-07-29T08:10:32;16.70;36.40
42663;DHT22;44330;51.360;6.686;2022-07-29T08:13:16;16.80;34.70
42663;DHT22;44330;51.360;6.686;2022-07-29T08:15:42;16.80;32.60
42663;DHT22;44330;51.360;6.686;2022-07-29T08:18:10;16.80;35.10
42663;DHT22;44330;51.360;6.686;2022-07-29T08:20:36;16.80;32.80
42663;DHT22;44330;51.360;6.686;2022-07-29T08:23:04;16.80;35.90
42663;DHT22;44330;51.360;6.686;2022-07-29T08:25:31;16.90;39.70
42663;DHT22;44330;51.360;6.686;2022-07-29T08:27:57;16.90;38.20
42663;DHT22;44330;51.360;6.686;2022-07-29T08:30:22;16.90;38.90
42663;DHT22;44330;51.360;6.686;2022-07-29T08:32:48;16.90;38.20
42663;DHT22;44330;51.360;6.686;2022-07-29T08:35:16;17.00;38.20
42663;DHT22;44330;51.360;6.686;2022-07-29T08:37:41;17.10;36.70
42663;DHT22;44330;51.360;6.686;2022-07-29T08:40:07;17.10;28.50
42663;DHT22;44330;51.360;6.686;2022-07-29T08:42:33;17.30;28.60
42663;DHT22;44330;51.360;6.686;2022-07-29T08:44:58;17.40;4.60
42663;DHT22;44330;51.360;6.686;2022-07-29T08:47:25;17.40;1.00
42663;DHT22;44330;51.360;6.686;2022-07-29T08:49:52;17.50;1.00
42663;DHT22;44330;51.360;6.686;2022-07-29T08:52:18;17.50;1.00
42663;DHT22;44330;51.360;6.686;2022-07-29T08:54:45;17.60;1.00
42663;DHT22;44330;51.360;6.686;2022-07-29T08:57:14;17.60;1.00
42663;DHT22;44330;51.360;6.686;2022-07-29T08:59:42;17.70;1.00
42663;DHT22;44330;51.360;6.686;2022-07-29T09:02:21;17.80;99.90
42663;DHT22;44330;51.360;6.686;2022-07-29T09:04:48;17.80;99.90
42663;DHT22;44330;51.360;6.686;2022-07-29T09:07:15;17.80;99.90
42663;DHT22;44330;51.360;6.686;2022-07-29T09:09:42;17.90;99.90
42663;DHT22;44330;51.360;6.686;2022-07-29T09:12:09;18.00;99.90
42663;DHT22;44330;51.360;6.686;2022-07-29T09:14:39;18.10;99.90
42663;DHT22;44330;51.360;6.686;2022-07-29T09:17:06;18.20;99.90
42663;DHT22;44330;51.360;6.686;2022-07-29T09:19:33;18.20;99.90
42663;DHT22;44330;51.360;6.686;2022-07-29T09:22:02;18.30;99.90
42663;DHT22;44330;51.360;6.686;2022-07-29T09:24:41;18.40;1.00
42663;DHT22;44330;51.360;6.686;2022-07-29T09:27:25;18.50;99.90
42663;DHT22;44330;51.360;6.686;2022-07-29T09:30:06;18.50;99.90
42663;DHT22;44330;51.360;6.686;2022-07-29T09:32:33;18.60;99.90
42663;DHT22;44330;51.360;6.686;2022-07-29T09:35:23;18.70;99.90
42663;DHT22;44330;51.360;6.686;2022-07-29T09:37:49;18.80;99.90
42663;DHT22;44330;51.360;6.686;2022-07-29T09:40:23;18.90;46.00
42663;DHT22;44330;51.360;6.686;2022-07-29T09:42:49;18.90;1.00
42663;DHT22;44330;51.360;6.686;2022-07-29T09:45:32;19.10;1.00
42663;DHT22;44330;51.360;6.686;2022-07-29T09:48:00;18.90;99.90
42663;DHT22;44330;51.360;6.686;2022-07-29T09:50:42;19.00;1.00
42663;DHT22;44330;51.360;6.686;2022-07-29T09:53:09;18.90;72.50
42663;DHT22;44330;51.360;6.686;2022-07-29T09:55:51;18.70;97.50
42663;DHT22;44330;51.360;6.686;2022-07-29T09:58:18;18.60;70.40
42663;DHT22;44330;51.360;6.686;2022-07-29T10:00:46;18.70;57.40
42663;DHT22;44330;51.360;6.686;2022-07-29T10:03:12;18.90;1.00
42663;DHT22;44330;51.360;6.686;2022-07-29T10:05:38;19.00;1.00
42663;DHT22;44330;51.360;6.686;2022-07-29T10:08:05;19.20;91.10
42663;DHT22;44330;51.360;6.686;2022-07-29T10:10:32;19.60;99.90
42663;DHT22;44330;51.360;6.686;2022-07-29T10:13:01;20.00;1.00
42663;DHT22;44330;51.360;6.686;2022-07-29T10:15:30;20.20;69.10
42663;DHT22;44330;51.360;6.686;2022-07-29T10:17:58;20.40;1.00
42663;DHT22;44330;51.360;6.686;2022-07-29T10:20:24;20.50;99.90
42663;DHT22;44330;51.360;6.686;2022-07-29T10:22:51;20.70;99.90
42663;DHT22;44330;51.360;6.686;2022-07-29T10:25:17;21.00;1.00
42663;DHT22;44330;51.360;6.686;2022-07-29T10:27:44;21.00;99.90
42663;DHT22;44330;51.360;6.686;2022-07-29T10:30:11;21.20;99.90
42663;DHT22;44330;51.360;6.686;2022-07-29T10:43:48;22.60;28.40
42663;DHT22;44330;51.360;6.686;2022-07-29T10:46:14;23.10;99.90
42663;DHT22;44330;51.360;6.686;2022-07-29T10:49:15;23.50;1.00
42663;DHT22;44330;51.360;6.686;2022-07-29T10:54:19;24.60;1.00
42663;DHT22;44330;51.360;6.686;2022-07-29T10:57:26;24.90;99.90
42663;DHT22;44330;51.360;6.686;2022-07-29T11:00:25;24.90;99.90
42663;DHT22;44330;51.360;6.686;2022-07-29T11:02:50;24.90;99.90
42663;DHT22;44330;51.360;6.686;2022-07-29T11:05:20;24.90;99.90
42663;DHT22;44330;51.360;6.686;2022-07-29T11:10:42;24.70;99.90
42663;DHT22;44330;51.360;6.686;2022-07-29T11:13:07;24.70;99.90
42663;DHT22;44330;51.360;6.686;2022-07-29T11:15:56;24.60;99.90
42663;DHT22;44330;51.360;6.686;2022-07-29T11:18:23;24.50;99.90
42663;DHT22;44330;51.360;6.686;2022-07-29T11:20:50;24.50;99.90
42663;DHT22;44330;51.360;6.686;2022-07-29T11:23:28;24.50;99.90
42663;DHT22;44330;51.360;6.686;2022-07-29T11:28:42;23.90;99.90
42663;DHT22;44330;51.360;6.686;2022-07-29T11:31:16;24.20;99.90
42663;DHT22;44330;51.360;6.686;2022-07-29T11:33:43;24.50;99.90
42663;DHT22;44330;51.360;6.686;2022-07-29T11:36:14;24.50;99.90
42663;DHT22;44330;51.360;6.686;2022-07-29T11:38:40;24.30;95.60
42663;DHT22;44330;51.360;6.686;2022-07-29T11:41:25;24.50;99.00
42663;DHT22;44330;51.360;6.686;2022-07-29T11:43:55;24.90;83.70
42663;DHT22;44330;51.360;6.686;2022-07-29T11:49:12;25.60;30.10
42663;DHT22;44330;51.360;6.686;2022-07-29T11:51:38;26.00;61.80
42663;DHT22;44330;51.360;6.686;2022-07-29T11:54:05;26.30;16.00
42663;DHT22;44330;51.360;6.686;2022-07-29T11:56:31;26.40;20.40
42663;DHT22;44330;51.360;6.686;2022-07-29T11:59:07;26.50;1.00
42663;DHT22;44330;51.360;6.686;2022-07-29T12:01:35;26.50;3.30
42663;DHT22;44330;51.360;6.686;2022-07-29T12:04:07;26.30;1.00
42663;DHT22;44330;51.360;6.686;2022-07-29T12:06:34;26.00;1.00
42663;DHT22;44330;51.360;6.686;2022-07-29T12:08:59;25.90;1.00
42663;DHT22;44330;51.360;6.686;2022-07-29T12:11:26;25.90;1.00
42663;DHT22;44330;51.360;6.686;2022-07-29T12:13:52;25.80;1.00
42663;DHT22;44330;51.360;6.686;2022-07-29T12:16:21;25.20;1.00
42663;DHT22;44330;51.360;6.686;2022-07-29T12:18:57;24.80;1.00
42663;DHT22;44330;51.360;6.686;2022-07-29T12:21:23;24.90;1.00
42663;DHT22;44330;51.360;6.686;2022-07-29T12:23:57;25.00;1.00
42663;DHT22;44330;51.360;6.686;2022-07-29T12:26:23;25.00;1.00
42663;DHT22;44330;51.360;6.686;2022-07-29T12:28:49;24.70;1.00
42663;DHT22;44330;51.360;6.686;2022-07-29T12:31:15;24.70;1.00
42663;DHT22;44330;51.360;6.686;2022-07-29T12:33:41;25.10;1.00
42663;DHT22;44330;51.360;6.686;2022-07-29T12:36:07;25.10;1.00
42663;DHT22;44330;51.360;6.686;2022-07-29T12:38:34;25.10;1.00
42663;DHT22;44330;51.360;6.686;2022-07-29T12:41:00;25.00;1.00
42663;DHT22;44330;51.360;6.686;2022-07-29T12:43:26;24.80;1.00
42663;DHT22;44330;51.360;6.686;2022-07-29T12:45:54;24.90;1.00
42663;DHT22;44330;51.360;6.686;2022-07-29T12:48:36;25.10;1.00
42663;DHT22;44330;51.360;6.686;2022-07-29T12:51:03;25.00;1.00
42663;DHT22;44330;51.360;6.686;2022-07-29T12:53:30;25.10;1.00
42663;DHT22;44330;51.360;6.686;2022-07-29T12:55:57;25.20;1.00
42663;DHT22;44330;51.360;6.686;2022-07-29T12:58:38;25.30;1.00
42663;DHT22;44330;51.360;6.686;2022-07-29T13:04:08;25.50;1.00
42663;DHT22;44330;51.360;6.686;2022-07-29T13:06:42;25.00;1.00
42663;DHT22;44330;51.360;6.686;2022-07-29T13:09:10;25.00;1.00
42663;DHT22;44330;51.360;6.686;2022-07-29T13:11:39;25.40;1.00
42663;DHT22;44330;51.360;6.686;2022-07-29T13:14:07;25.80;1.00
42663;DHT22;44330;51.360;6.686;2022-07-29T13:16:34;26.30;1.00
42663;DHT22;44330;51.360;6.686;2022-07-29T13:21:29;26.50;99.90
42663;DHT22;44330;51.360;6.686;2022-07-29T13:23:55;26.30;1.00
42663;DHT22;44330;51.360;6.686;2022-07-29T13:26:20;26.50;99.90
42663;DHT22;44330;51.360;6.686;2022-07-29T13:28:46;26.60;99.90
42663;DHT22;44330;51.360;6.686;2022-07-29T13:31:11;26.60;99.90
42663;DHT22;44330;51.360;6.686;2022-07-29T13:33:37;26.80;99.90
42663;DHT22;44330;51.360;6.686;2022-07-29T13:36:03;26.70;99.90
42663;DHT22;44330;51.360;6.686;2022-07-29T13:38:28;26.70;99.90
42663;DHT22;44330;51.360;6.686;2022-07-29T13:40:54;27.00;99.90
42663;DHT22;44330;51.360;6.686;2022-07-29T13:43:19;27.10;99.90
42663;DHT22;44330;51.360;6.686;2022-07-29T13:45:45;27.10;99.90
42663;DHT22;44330;51.360;6.686;2022-07-29T13:48:10;27.00;99.90
42663;DHT22;44330;51.360;6.686;2022-07-29T13:50:36;27.00;99.90
42663;DHT22;44330;51.360;6.686;2022-07-29T13:53:02;27.20;99.90
42663;DHT22;44330;51.360;6.686;2022-07-29T13:55:27;27.50;99.90
42663;DHT22;44330;51.360;6.686;2022-07-29T13:57:53;27.60;99.90
42663;DHT22;44330;51.360;6.686;2022-07-29T14:00:19;27.10;99.90
42663;DHT22;44330;51.360;6.686;2022-07-29T14:02:44;26.70;99.90
42663;DHT22;44330;51.360;6.686;2022-07-29T14:05:10;26.50;99.90
42663;DHT22;44330;51.360;6.686;2022-07-29T14:07:37;25.90;99.90
42663;DHT22;44330;51.360;6.686;2022-07-29T14:10:04;25.60;99.90
42663;DHT22;44330;51.360;6.686;2022-07-29T14:12:30;25.60;99.90
42663;DHT22;44330;51.360;6.686;2022-07-29T14:14:56;26.20;99.90
42663;DHT22;44330;51.360;6.686;2022-07-29T14:17:21;26.80;99.90
42663;DHT22;44330;51.360;6.686;2022-07-29T14:19:48;26.50;99.90
42663;DHT22;44330;51.360;6.686;2022-07-29T14:22:13;25.70;99.90
42663;DHT22;44330;51.360;6.686;2022-07-29T14:24:39;25.60;99.90
42663;DHT22;44330;51.360;6.686;2022-07-29T14:27:06;26.20;99.90
42663;DHT22;44330;51.360;6.686;2022-07-29T14:29:32;26.70;99.90
42663;DHT22;44330;51.360;6.686;2022-07-29T14:31:58;26.80;99.90
42663;DHT22;44330;51.360;6.686;2022-07-29T14:34:23;25.90;99.90
42663;DHT22;44330;51.360;6.686;2022-07-29T14:36:49;25.90;99.90
42663;DHT22;44330;51.360;6.686;2022-07-29T14:39:15;26.00;99.90
42663;DHT22;44330;51.360;6.686;2022-07-29T14:41:42;26.10;99.90
42663;DHT22;44330;51.360;6.686;2022-07-29T14:44:08;26.30;99.90
42663;DHT22;44330;51.360;6.686;2022-07-29T14:46:34;25.10;99.90
42663;DHT22;44330;51.360;6.686;2022-07-29T14:48:59;24.80;99.90
42663;DHT22;44330;51.360;6.686;2022-07-29T14:51:25;24.90;99.90
42663;DHT22;44330;51.360;6.686;2022-07-29T14:53:50;25.10;99.90
42663;DHT22;44330;51.360;6.686;2022-07-29T14:56:16;24.90;99.90
42663;DHT22;44330;51.360;6.686;2022-07-29T14:58:41;24.90;99.90
42663;DHT22;44330;51.360;6.686;2022-07-29T15:01:07;25.20;99.90
42663;DHT22;44330;51.360;6.686;2022-07-29T15:03:32;25.10;99.90
42663;DHT22;44330;51.360;6.686;2022-07-29T15:05:58;25.00;99.90
42663;DHT22;44330;51.360;6.686;2022-07-29T15:08:24;25.10;99.90
42663;DHT22;44330;51.360;6.686;2022-07-29T15:10:50;25.40;99.90
42663;DHT22;44330;51.360;6.686;2022-07-29T15:13:16;25.60;99.90
42663;DHT22;44330;51.360;6.686;2022-07-29T15:15:41;26.00;99.90
42663;DHT22;44330;51.360;6.686;2022-07-29T15:18:07;26.10;99.90
42663;DHT22;44330;51.360;6.686;2022-07-29T15:20:33;26.00;99.90
42663;DHT22;44330;51.360;6.686;2022-07-29T15:22:58;25.90;99.90
42663;DHT22;44330;51.360;6.686;2022-07-29T15:25:25;26.20;99.90
42663;DHT22;44330;51.360;6.686;2022-07-29T15:27:51;26.60;99.90
42663;DHT22;44330;51.360;6.686;2022-07-29T15:30:16;26.80;99.90
42663;DHT22;44330;51.360;6.686;2022-07-29T15:32:43;27.10;99.90
42663;DHT22;44330;51.360;6.686;2022-07-29T15:35:09;27.00;99.90
42663;DHT22;44330;51.360;6.686;2022-07-29T15:37:36;26.50;99.90
42663;DHT22;44330;51.360;6.686;2022-07-29T15:40:04;26.50;99.90
42663;DHT22;44330;51.360;6.686;2022-07-29T15:42:29;26.60;99.90
42663;DHT22;44330;51.360;6.686;2022-07-29T15:44:55;26.70;99.90
42663;DHT22;44330;51.360;6.686;2022-07-29T15:47:21;26.70;99.90
42663;DHT22;44330;51.360;6.686;2022-07-29T15:49:46;26.30;99.90
42663;DHT22;44330;51.360;6.686;2022-07-29T15:52:12;25.80;99.90
42663;DHT22;44330;51.360;6.686;2022-07-29T15:54:39;25.70;99.90
42663;DHT22;44330;51.360;6.686;2022-07-29T15:57:07;25.30;99.90
42663;DHT22;44330;51.360;6.686;2022-07-29T15:59:33;25.20;99.90
42663;DHT22;44330;51.360;6.686;2022-07-29T16:01:59;25.10;99.90
42663;DHT22;44330;51.360;6.686;2022-07-29T16:04:26;25.10;99.90
42663;DHT22;44330;51.360;6.686;2022-07-29T16:06:52;25.00;99.90
42663;DHT22;44330;51.360;6.686;2022-07-29T16:09:18;24.90;99.90
42663;DHT22;44330;51.360;6.686;2022-07-29T16:11:44;25.00;99.90
42663;DHT22;44330;51.360;6.686;2022-07-29T16:14:11;25.10;99.90
42663;DHT22;44330;51.360;6.686;2022-07-29T16:16:37;25.10;99.90
42663;DHT22;44330;51.360;6.686;2022-07-29T16:19:03;25.10;99.90
42663;DHT22;44330;51.360;6.686;2022-07-29T16:21:29;24.90;99.90
42663;DHT22;44330;51.360;6.686;2022-07-29T16:23:56;25.00;99.90
42663;DHT22;44330;51.360;6.686;2022-07-29T16:26:22;25.00;99.90